Terminal Aerodrome Forecast
Issued by NWS Midland/Odessa, TX

Home | Current Version | Previous Version | Text Only | Print | Product List | Glossary On
Versions: 1 2 3 4 5 6 7 8 9 10 11 12 13 14 15 16 17 18 19 20 21 22 23 24 25 26 27 28 29 30 31 32
648
FTUS44 KMAF 242111 AAA
TAFMAF
TAF AMD
KMAF 242111Z 2421/2518 17015KT P6SM BKN025
     FM242300 15018G25KT P6SM BKN040 BKN250
      TEMPO 2423/2503 VRB25G35KT 3SM TSRA BKN030CB
     FM251000 16015G25KT P6SM OVC015=

USA.gov is the U.S. government's official web portal to all federal, state and local government web resources and services.